Rothesay, United Kingdom
Current Conditions -  °F | °C
As of 6:50 PM on Friday 21 Nov 2014 (Local Time) from EGPF Reporting Station
Light Rain Light Rain  
Wind Chill: 40°   Ceiling: 4700
Heat Index: 45°   Visibility: 3mi
Dew Point: 43°   Wind: 9mph
Humidity: 93%   Direction: 70°ENE
Pressure: 29.85"   Gusts: NA
Location:  55.84°N, 5.06°W
Report Text: EGPF 211850Z AUTO 07008KT 5000 -RA BKN047 07/06 Q1011
Loading
Personal Weather Stations






























Interactive Weather Map New forecast layout! Learn more

10-Day Weather Forecast

Advertisements
Track Severe Weather on mobile